Time;durP1;ratioP1;P1;durP2;ratioP2;P2;SDS_P1;SDS_P2;PMS_P1;PMS_P2;Temp;Humidity;BMP_temperature;BMP_pressure;BME280_temperature;BME280_humidity;BME280_pressure;Samples;Min_cycle;Max_cycle;Signal;HPM_P1;HPM_P2
2022/06/06 00:00:34;;;;;;;7.70;6.30;;;;;;;15.01;61.00;98690.73;219468;1271;24319;-69
2022/06/06 00:06:33;;;;;;;6.10;5.60;;;;;;;14.93;61.40;98693.98;219581;1271;22523;-69
2022/06/06 00:11:58;;;;;;;6.80;6.20;;;;;;;14.87;61.75;98692.30;219022;1271;484281;-68
2022/06/06 00:17:14;;;;;;;7.40;6.70;;;;;;;14.85;62.03;98690.81;219091;1274;22574;-69
2022/06/06 00:22:20;;;;;;;6.70;6.10;;;;;;;14.81;62.09;98693.16;219475;1271;25496;-68
2022/06/06 00:27:22;;;;;;;7.00;6.40;;;;;;;14.77;62.38;98690.83;219450;1271;22538;-70
2022/06/06 00:37:47;;;;;;;7.20;6.50;;;;;;;14.73;62.79;98678.79;219301;1271;22609;-68
2022/06/06 00:43:00;;;;;;;7.60;6.90;;;;;;;14.71;63.01;98670.56;219719;1271;25165;-69
2022/06/06 00:48:38;;;;;;;7.40;6.70;;;;;;;14.65;62.98;98674.08;219046;1273;22556;-69
2022/06/06 00:53:58;;;;;;;7.60;6.90;;;;;;;14.59;63.26;98679.91;219327;1271;26236;-68
2022/06/06 00:59:15;;;;;;;7.70;6.90;;;;;;;14.64;63.67;98670.45;219634;1271;25415;-69
2022/06/06 01:04:48;;;;;;;8.30;7.40;;;;;;;14.67;63.52;98660.52;220111;1271;22729;-68
2022/06/06 01:10:03;;;;;;;8.40;7.60;;;;;;;14.62;63.55;98659.03;219760;1271;24052;-68
2022/06/06 01:15:35;;;;;;;9.30;8.30;;;;;;;14.52;63.68;98645.91;219510;1272;24253;-68
2022/06/06 01:21:24;;;;;;;8.80;7.90;;;;;;;14.44;64.19;98654.06;219315;1274;22557;-68
2022/06/06 01:26:56;;;;;;;9.30;8.40;;;;;;;14.34;64.29;98643.19;219291;1271;22588;-71
2022/06/06 01:32:03;;;;;;;7.80;7.10;;;;;;;14.22;64.60;98636.17;219785;1271;22567;-68
2022/06/06 01:37:26;;;;;;;8.60;7.80;;;;;;;14.13;65.04;98649.63;219342;1271;22529;-69
2022/06/06 01:43:15;;;;;;;8.50;7.70;;;;;;;14.06;65.32;98661.85;219513;1271;24126;-69
2022/06/06 01:49:04;;;;;;;8.80;7.90;;;;;;;14.12;65.67;98661.50;219261;1271;22532;-68
2022/06/06 01:54:34;;;;;;;8.80;7.90;;;;;;;14.28;65.87;98663.81;219713;1271;22723;-69
2022/06/06 02:00:08;;;;;;;8.60;7.70;;;;;;;14.47;65.83;98664.38;219328;1271;25343;-68
2022/06/06 02:05:20;;;;;;;8.90;8.00;;;;;;;14.61;65.53;98666.70;219559;1271;26406;-69
2022/06/06 02:10:33;;;;;;;9.00;8.10;;;;;;;14.67;65.38;98667.38;219535;1271;22528;-68
2022/06/06 02:15:48;;;;;;;9.40;8.50;;;;;;;14.69;65.21;98668.85;219653;1272;25359;-68
2022/06/06 02:21:23;;;;;;;9.10;8.10;;;;;;;14.73;65.24;98664.79;219631;1273;26534;-68
2022/06/06 02:27:13;;;;;;;8.90;8.00;;;;;;;14.82;65.38;98663.57;219348;1271;24039;-68
2022/06/06 02:32:36;;;;;;;9.10;8.20;;;;;;;14.96;65.30;98657.67;219399;1271;23951;-69
2022/06/06 02:37:48;;;;;;;9.60;7.90;;;;;;;15.04;65.14;98655.50;219814;1272;24297;-68
2022/06/06 02:42:54;;;;;;;9.40;8.40;;;;;;;15.08;65.02;98666.27;219765;1271;24210;-69
2022/06/06 02:48:08;;;;;;;9.10;8.20;;;;;;;15.08;64.83;98664.41;219438;1271;24412;-69
2022/06/06 02:53:26;;;;;;;9.40;7.90;;;;;;;15.04;64.80;98667.17;219290;1271;22544;-70
2022/06/06 02:58:33;;;;;;;10.10;9.10;;;;;;;15.01;64.83;98668.01;219656;1271;25317;-68
2022/06/06 03:04:02;;;;;;;9.80;8.90;;;;;;;15.00;65.00;98667.35;219304;1271;22775;-68
2022/06/06 03:09:10;;;;;;;10.10;8.70;;;;;;;15.02;65.25;98672.52;220869;1271;22550;-69
2022/06/06 03:14:24;;;;;;;11.10;9.50;;;;;;;15.04;65.31;98678.99;219417;1271;22532;-68
2022/06/06 03:25:43;;;;;;;10.00;8.60;;;;;;;15.10;65.28;98676.48;219509;1271;25349;-68
2022/06/06 03:31:03;;;;;;;10.10;8.90;;;;;;;15.17;65.41;98682.98;219272;1271;23219;-69
2022/06/06 03:36:28;;;;;;;9.30;8.20;;;;;;;15.27;65.31;98680.69;219673;1271;24266;-68
2022/06/06 03:41:44;;;;;;;9.70;8.70;;;;;;;15.33;65.18;98678.35;219398;1271;22583;-68
2022/06/06 03:47:19;;;;;;;9.30;8.40;;;;;;;15.39;65.15;98683.13;219607;1271;24269;-69
2022/06/06 03:52:44;;;;;;;8.90;8.00;;;;;;;15.45;65.11;98690.58;219668;1271;22557;-69
2022/06/06 03:57:57;;;;;;;8.60;7.80;;;;;;;15.52;65.18;98690.02;219474;1271;22612;-69
2022/06/06 04:03:03;;;;;;;9.50;8.20;;;;;;;15.57;65.18;98683.27;219705;1271;25317;-69
2022/06/06 04:08:08;;;;;;;9.90;8.90;;;;;;;15.62;65.14;98673.73;219722;1271;22702;-69
2022/06/06 04:13:46;;;;;;;9.50;8.50;;;;;;;15.67;65.13;98667.68;220134;1271;24147;-69
2022/06/06 04:19:05;;;;;;;10.50;8.90;;;;;;;15.74;65.35;98667.20;219460;1273;25306;-69
2022/06/06 04:24:10;;;;;;;10.10;8.70;;;;;;;15.74;65.29;98673.44;219201;1271;25245;-69
2022/06/06 04:29:57;;;;;;;9.80;8.70;;;;;;;15.73;65.45;98677.27;219786;1271;22743;-69
2022/06/06 04:36:18;;;;;;;9.30;8.20;;;;;;;15.75;65.62;98676.39;219663;1271;22744;-69
2022/06/06 04:41:36;;;;;;;9.90;8.70;;;;;;;15.83;65.70;98676.34;219722;1271;24813;-70
2022/06/06 04:47:02;;;;;;;11.00;9.80;;;;;;;15.87;65.66;98678.16;219683;1270;22553;-69
2022/06/06 04:52:15;;;;;;;11.40;9.70;;;;;;;15.97;65.78;98671.43;219579;1271;22717;-69
2022/06/06 04:57:29;;;;;;;11.40;9.10;;;;;;;16.15;65.68;98677.50;219497;1271;22531;-69
2022/06/06 05:02:50;;;;;;;10.00;8.70;;;;;;;16.36;65.56;98678.55;219694;1271;22563;-69
2022/06/06 05:08:52;;;;;;;10.30;8.50;;;;;;;16.53;65.21;98680.50;219401;1271;24291;-69
2022/06/06 05:14:17;;;;;;;9.30;8.50;;;;;;;16.58;65.23;98681.46;219725;1271;23058;-69
2022/06/06 05:19:50;;;;;;;9.80;8.70;;;;;;;16.67;65.43;98689.64;219591;1272;23224;-69
2022/06/06 05:25:35;;;;;;;8.50;7.70;;;;;;;16.81;65.38;98694.84;219567;1271;22598;-68
2022/06/06 05:30:53;;;;;;;8.90;7.70;;;;;;;17.00;65.36;98699.98;219221;1273;24297;-69
2022/06/06 05:36:08;;;;;;;8.70;7.90;;;;;;;17.30;65.44;98705.91;219368;1273;22890;-69
2022/06/06 05:42:32;;;;;;;9.00;8.20;;;;;;;17.62;65.56;98707.61;219088;1271;22601;-73
2022/06/06 05:48:30;;;;;;;8.90;7.30;;;;;;;18.00;65.49;98717.94;220827;1272;22554;-72
2022/06/06 05:54:25;;;;;;;8.80;7.80;;;;;;;18.44;64.24;98719.25;221171;1271;22576;-72
2022/06/06 05:59:30;;;;;;;9.10;7.10;;;;;;;18.86;63.66;98719.31;220749;1273;25436;-69
2022/06/06 06:04:57;;;;;;;8.00;7.00;;;;;;;19.13;63.22;98726.19;221199;1271;22667;-72
2022/06/06 06:10:14;;;;;;;7.30;6.50;;;;;;;19.45;62.94;98728.42;221262;1271;24266;-72
2022/06/06 06:15:45;;;;;;;6.70;6.10;;;;;;;19.75;62.09;98720.80;221313;1271;22527;-71
2022/06/06 06:21:05;;;;;;;6.30;5.70;;;;;;;20.04;61.47;98722.21;220537;1273;22573;-71
2022/06/06 06:26:16;;;;;;;5.90;5.30;;;;;;;20.37;61.42;98725.52;220979;1271;25375;-71
2022/06/06 06:31:37;;;;;;;9.10;6.40;;;;;;;20.69;61.07;98725.66;220629;1273;22537;-70
2022/06/06 06:36:51;;;;;;;6.10;5.60;;;;;;;20.87;60.51;98730.02;220923;1271;25444;-71
2022/06/06 06:42:03;;;;;;;6.70;6.10;;;;;;;21.03;59.89;98727.13;220978;1271;22572;-74
2022/06/06 06:47:42;;;;;;;7.80;6.50;;;;;;;21.23;59.93;98729.33;221033;1271;23263;-72
2022/06/06 06:53:36;;;;;;;8.60;6.10;;;;;;;21.45;59.27;98728.91;220708;1271;22851;-72
2022/06/06 06:59:13;;;;;;;15.30;6.60;;;;;;;21.55;59.06;98727.20;220836;1271;24413;-73
2022/06/06 07:10:20;;;;;;;6.20;5.70;;;;;;;21.75;59.11;98729.30;220862;1271;22529;-73
2022/06/06 07:15:43;;;;;;;5.90;5.20;;;;;;;21.98;59.05;98723.04;220811;1271;25481;-73
2022/06/06 07:21:05;;;;;;;5.90;5.10;;;;;;;22.16;58.12;98722.77;220800;1271;27076;-71
2022/06/06 07:26:24;;;;;;;;;;;;;;;;;;;;;
2022/06/06 07:31:43;;;;;;;6.20;4.90;;;;;;;22.16;57.46;98718.55;221259;1271;22589;-72
2022/06/06 07:37:30;;;;;;;5.00;4.60;;;;;;;22.24;58.03;98720.15;220651;1271;22660;-73
2022/06/06 07:42:54;;;;;;;5.30;4.90;;;;;;;22.47;58.24;98721.14;221095;1271;24340;-72
2022/06/06 07:48:36;;;;;;;5.50;5.00;;;;;;;22.77;57.95;98721.05;221081;1271;22563;-72
2022/06/06 07:54:09;;;;;;;;;;;;;;;;;;;;;
2022/06/06 07:59:35;;;;;;;5.20;4.50;;;;;;;23.22;57.34;98720.02;221067;1271;22603;-73
2022/06/06 08:05:03;;;;;;;5.10;4.50;;;;;;;23.41;56.21;98725.36;220925;1271;22560;-74
2022/06/06 08:10:30;;;;;;;4.80;4.40;;;;;;;23.39;56.01;98723.77;220847;1271;25548;-73
2022/06/06 08:16:13;;;;;;;5.40;5.00;;;;;;;23.68;56.37;98728.02;220933;1271;22531;-73
2022/06/06 08:21:24;;;;;;;5.90;5.30;;;;;;;23.99;56.27;98730.56;221131;1271;22554;-72
2022/06/06 08:26:48;;;;;;;5.80;5.30;;;;;;;24.33;55.80;98729.23;221093;1271;22575;-72
2022/06/06 08:32:10;;;;;;;6.00;5.40;;;;;;;24.57;55.04;98726.01;220898;1271;25455;-71
2022/06/06 08:37:49;;;;;;;8.10;5.40;;;;;;;24.78;54.76;98724.47;221067;1271;22501;-76
2022/06/06 08:43:47;;;;;;;6.40;5.50;;;;;;;25.00;54.01;98724.63;220847;1271;24380;-71
2022/06/06 08:55:06;;;;;;;6.20;5.60;;;;;;;25.09;52.22;98720.35;220771;1271;22614;-73
2022/06/06 09:00:16;;;;;;;9.40;6.20;;;;;;;25.25;52.28;98717.02;220935;1271;24234;-75
2022/06/06 09:05:56;;;;;;;8.30;7.40;;;;;;;25.49;52.02;98716.30;220654;1273;24123;-72
2022/06/06 09:11:29;;;;;;;7.10;6.40;;;;;;;25.65;50.61;98719.69;220682;1271;25338;-73
2022/06/06 09:17:16;;;;;;;7.00;5.90;;;;;;;25.53;49.88;98716.06;220847;1271;25401;-72
2022/06/06 09:23:00;;;;;;;6.50;5.90;;;;;;;25.90;49.86;98716.16;220618;1271;22784;-71
2022/06/06 09:28:32;;;;;;;6.80;6.10;;;;;;;26.03;48.16;98715.14;220968;1271;25420;-73
2022/06/06 09:33:40;;;;;;;14.10;12.70;;;;;;;25.93;47.13;98706.52;220789;1271;22560;-72
2022/06/06 09:38:42;;;;;;;6.70;6.10;;;;;;;26.03;47.66;98706.45;220959;1271;22778;-72
2022/06/06 09:44:01;;;;;;;7.40;6.80;;;;;;;26.02;46.81;98701.17;220896;1271;22546;-72
2022/06/06 09:49:25;;;;;;;7.20;6.60;;;;;;;26.33;47.89;98699.95;220865;1271;25434;-70
2022/06/06 10:00:59;;;;;;;7.10;6.50;;;;;;;26.52;45.10;98697.08;221172;1273;22550;-72
2022/06/06 10:07:00;;;;;;;7.30;6.60;;;;;;;26.52;45.51;98695.42;220720;1273;23608;-73
2022/06/06 10:12:51;;;;;;;6.60;6.00;;;;;;;26.96;46.16;98692.58;221146;1271;26426;-71
2022/06/06 10:18:21;;;;;;;6.20;5.60;;;;;;;27.70;45.38;98687.23;220550;1273;22525;-73
2022/06/06 10:23:41;;;;;;;7.70;6.80;;;;;;;28.03;43.40;98692.00;220867;1271;22657;-73
2022/06/06 10:29:09;;;;;;;7.30;5.90;;;;;;;28.00;43.45;98691.39;220739;1271;24717;-73
2022/06/06 10:34:34;;;;;;;6.80;6.10;;;;;;;28.29;44.18;98688.73;220779;1272;23593;-72
2022/06/06 10:39:39;;;;;;;5.90;5.40;;;;;;;28.21;43.00;98691.10;220636;1272;22565;-72
2022/06/06 10:44:53;;;;;;;7.30;6.60;;;;;;;27.81;42.76;98689.41;220832;1273;22617;-72
2022/06/06 10:50:09;;;;;;;8.10;5.40;;;;;;;27.49;43.23;98691.34;220771;1271;23378;-73
2022/06/06 10:55:52;;;;;;;5.20;4.80;;;;;;;27.49;44.17;98681.59;220681;1273;23732;-73
2022/06/06 11:01:28;;;;;;;5.40;5.00;;;;;;;27.88;43.74;98682.77;220629;1273;25271;-73
2022/06/06 11:06:37;;;;;;;5.90;5.40;;;;;;;27.86;43.21;98686.30;220829;1272;22564;-71
2022/06/06 11:12:20;;;;;;;5.10;4.60;;;;;;;27.97;42.89;98681.65;220750;1272;22541;-71
2022/06/06 11:18:16;;;;;;;5.20;4.80;;;;;;;28.19;43.21;98681.45;220621;1272;22565;-72
2022/06/06 11:23:26;;;;;;;6.70;5.70;;;;;;;28.52;42.58;98680.77;221194;1272;22629;-71
2022/06/06 11:29:10;;;;;;;5.90;4.80;;;;;;;28.53;42.47;98676.28;220962;1271;23892;-71
2022/06/06 11:34:18;;;;;;;6.80;6.20;;;;;;;28.37;42.64;98679.84;220915;1271;22616;-75
2022/06/06 11:39:34;;;;;;;5.30;4.90;;;;;;;28.11;42.87;98678.31;220932;1271;25254;-73
2022/06/06 11:45:12;;;;;;;6.20;5.60;;;;;;;27.95;43.08;98673.87;220764;1271;22544;-72
2022/06/06 11:50:36;;;;;;;4.70;4.30;;;;;;;27.85;43.29;98673.73;220990;1271;22601;-73
2022/06/06 11:56:00;;;;;;;4.30;4.00;;;;;;;27.80;44.27;98674.80;220726;1273;25352;-73
2022/06/06 12:01:34;;;;;;;4.50;4.10;;;;;;;27.59;44.52;98677.50;220789;1273;22551;-73
2022/06/06 12:06:47;;;;;;;5.10;4.70;;;;;;;27.58;45.23;98676.56;221080;1271;25500;-74
2022/06/06 12:12:08;;;;;;;3.90;3.60;;;;;;;27.75;44.81;98675.88;220465;1271;510832;-74
2022/06/06 12:17:33;;;;;;;5.30;4.80;;;;;;;28.00;44.93;98670.55;220678;1273;22552;-73
2022/06/06 12:23:22;;;;;;;3.70;3.40;;;;;;;28.15;44.00;98665.77;221369;1272;25308;-73
2022/06/06 12:28:54;;;;;;;4.80;4.20;;;;;;;27.79;43.78;98668.75;220940;1274;22537;-71
2022/06/06 12:34:27;;;;;;;4.30;3.90;;;;;;;27.54;43.84;98663.95;220756;1272;22539;-73
2022/06/06 12:39:57;;;;;;;5.90;5.40;;;;;;;27.19;44.09;98662.61;221066;1273;23670;-73
2022/06/06 12:45:23;;;;;;;3.50;3.20;;;;;;;26.90;44.71;98664.20;220920;1274;23229;-73
2022/06/06 12:50:36;;;;;;;6.40;2.90;;;;;;;26.58;45.34;98662.61;221236;1271;22563;-73
2022/06/06 12:56:17;;;;;;;1.90;1.80;;;;;;;26.50;46.08;98660.13;221421;1271;24029;-74
2022/06/06 13:02:08;;;;;;;4.70;2.70;;;;;;;26.21;46.26;98660.77;220964;1271;22872;-73
2022/06/06 13:07:38;;;;;;;2.60;2.00;;;;;;;26.04;46.30;98665.98;221104;1273;22541;-73
2022/06/06 13:12:49;;;;;;;2.30;2.10;;;;;;;25.74;46.18;98667.64;220805;1273;22617;-73
2022/06/06 13:18:23;;;;;;;2.60;2.40;;;;;;;25.57;46.90;98667.89;221031;1271;23710;-73
2022/06/06 13:23:56;;;;;;;2.00;1.80;;;;;;;25.59;47.40;98656.67;220773;1271;22583;-69
2022/06/06 13:28:58;;;;;;;2.20;2.10;;;;;;;25.98;47.94;98655.79;221267;1274;25305;-70
2022/06/06 13:34:28;;;;;;;1.80;1.70;;;;;;;26.30;47.61;98660.52;221115;1271;22544;-70
2022/06/06 13:39:47;;;;;;;1.50;1.40;;;;;;;26.19;46.65;98668.38;219365;1271;24327;-69
2022/06/06 13:45:26;;;;;;;1.40;1.30;;;;;;;25.39;47.18;98670.37;221014;1271;22565;-69
2022/06/06 13:51:31;;;;;;;1.70;1.60;;;;;;;24.65;48.66;98669.16;219302;1271;24236;-69
2022/06/06 13:56:42;;;;;;;3.50;2.90;;;;;;;24.03;50.43;98673.68;219172;1271;24277;-69
2022/06/06 14:02:09;;;;;;;2.00;1.40;;;;;;;23.52;51.53;98669.06;219343;1271;24294;-70
2022/06/06 14:07:15;;;;;;;2.30;2.10;;;;;;;23.21;52.35;98675.20;219727;1271;22618;-69
2022/06/06 14:12:57;;;;;;;;;;;;;;;;;;;;;
2022/06/06 14:18:13;;;;;;;3.30;2.20;;;;;;;22.96;53.86;98676.62;219425;1271;22602;-70
2022/06/06 14:23:25;;;;;;;1.50;1.40;;;;;;;22.92;54.36;98675.56;219527;1271;22560;-71
2022/06/06 14:28:47;;;;;;;1.40;1.30;;;;;;;22.90;54.75;98678.67;219650;1271;22625;-71
2022/06/06 14:34:02;;;;;;;2.10;1.50;;;;;;;22.98;55.19;98679.15;219652;1271;22551;-71
2022/06/06 14:39:06;;;;;;;2.10;1.60;;;;;;;23.04;55.18;98677.27;220501;1271;25354;-71
2022/06/06 14:44:11;;;;;;;2.20;2.00;;;;;;;23.11;55.28;98678.90;220506;1271;22740;-70
2022/06/06 14:49:40;;;;;;;2.00;1.90;;;;;;;23.20;55.66;98675.04;220391;1271;27555;-69
2022/06/06 14:55:01;;;;;;;1.70;1.60;;;;;;;23.31;55.54;98671.85;219391;1271;24988;-68
2022/06/06 15:00:25;;;;;;;1.80;1.70;;;;;;;23.52;55.50;98667.90;219726;1271;26158;-70
2022/06/06 15:05:35;;;;;;;2.10;1.80;;;;;;;23.61;55.48;98668.60;219594;1274;22533;-70
2022/06/06 15:10:46;;;;;;;1.70;1.60;;;;;;;23.74;55.59;98663.31;220638;1272;22566;-69
2022/06/06 15:15:53;;;;;;;2.20;2.10;;;;;;;24.00;55.54;98661.86;219427;1271;24119;-70
2022/06/06 15:20:58;;;;;;;5.50;5.10;;;;;;;24.23;55.10;98653.94;220052;1271;22965;-69
2022/06/06 15:26:18;;;;;;;2.20;2.00;;;;;;;24.38;54.85;98645.89;220082;1271;25492;-70
2022/06/06 15:31:52;;;;;;;13.80;12.40;;;;;;;24.52;54.73;98642.98;219896;1271;24178;-71
2022/06/06 15:37:25;;;;;;;2.50;2.30;;;;;;;24.61;54.57;98637.48;220656;1273;22628;-71
2022/06/06 15:43:14;;;;;;;2.00;1.80;;;;;;;24.67;54.54;98634.68;219498;1271;23319;-70
2022/06/06 15:48:31;;;;;;;2.20;2.10;;;;;;;24.48;54.15;98631.22;219209;1273;25269;-69
2022/06/06 15:53:59;;;;;;;5.10;4.70;;;;;;;24.26;54.64;98633.94;219958;1271;25308;-70
2022/06/06 15:59:26;;;;;;;4.20;3.90;;;;;;;24.13;55.08;98632.08;220113;1271;22937;-70
2022/06/06 16:04:43;;;;;;;6.20;5.60;;;;;;;23.98;55.80;98641.15;220819;1271;24406;-70
2022/06/06 16:10:26;;;;;;;5.10;4.70;;;;;;;24.08;56.46;98638.00;220543;1271;25555;-70
2022/06/06 16:15:41;;;;;;;5.70;4.70;;;;;;;24.37;56.58;98641.03;220630;1272;22551;-70
2022/06/06 16:21:08;;;;;;;5.10;4.70;;;;;;;24.41;55.97;98639.64;219771;1271;23236;-70
2022/06/06 16:26:10;;;;;;;5.70;5.20;;;;;;;24.17;56.10;98637.27;219789;1271;22645;-69
2022/06/06 16:31:39;;;;;;;4.50;4.20;;;;;;;23.98;56.32;98639.34;219583;1271;22546;-70
2022/06/06 16:37:08;;;;;;;4.80;4.40;;;;;;;23.84;55.98;98647.60;219370;1271;25587;-69
2022/06/06 16:47:59;;;;;;;3.70;3.40;;;;;;;23.47;55.97;98644.04;219570;1271;22550;-70
2022/06/06 16:53:20;;;;;;;4.80;4.40;;;;;;;23.33;56.18;98647.11;219602;1273;22626;-70
2022/06/06 16:58:47;;;;;;;3.50;3.20;;;;;;;23.14;55.78;98652.79;220343;1273;25185;-69
2022/06/06 17:04:40;;;;;;;3.10;2.50;;;;;;;22.90;55.65;98653.70;219376;1271;26461;-70
2022/06/06 17:10:27;;;;;;;3.30;2.20;;;;;;;22.66;55.76;98655.08;219278;1271;22625;-70
2022/06/06 17:15:41;;;;;;;3.90;3.60;;;;;;;22.41;56.03;98653.70;219527;1271;22694;-70
2022/06/06 17:20:44;;;;;;;2.60;2.40;;;;;;;22.22;56.36;98654.80;219661;1271;23494;-70
2022/06/06 17:25:56;;;;;;;2.20;2.00;;;;;;;21.97;56.81;98650.72;219403;1271;22522;-69
2022/06/06 17:31:15;;;;;;;2.80;2.00;;;;;;;21.75;57.42;98649.54;219295;1271;22544;-69
2022/06/06 17:36:26;;;;;;;1.90;1.70;;;;;;;21.59;58.13;98645.80;219910;1271;25315;-70
2022/06/06 17:41:36;;;;;;;2.10;1.50;;;;;;;21.43;58.66;98642.80;220010;1271;25306;-70
2022/06/06 17:47:00;;;;;;;1.50;1.40;;;;;;;21.31;58.96;98646.40;219372;1274;25417;-69
2022/06/06 17:52:54;;;;;;;1.30;1.20;;;;;;;21.20;59.28;98644.19;219754;1271;22702;-70
2022/06/06 17:58:48;;;;;;;;;;;;;;;;;;;;;
2022/06/06 18:04:18;;;;;;;1.20;1.10;;;;;;;20.87;59.75;98632.63;219676;1271;24685;-69
2022/06/06 18:09:52;;;;;;;0.90;0.90;;;;;;;20.71;60.29;98631.16;219796;1271;26406;-69
2022/06/06 18:15:17;;;;;;;0.90;0.90;;;;;;;20.59;60.61;98627.55;219922;1271;25391;-69
2022/06/06 18:20:43;;;;;;;2.10;0.80;;;;;;;20.50;60.80;98630.42;219507;1273;22549;-69
2022/06/06 18:25:56;;;;;;;1.50;1.00;;;;;;;20.44;61.12;98625.31;219586;1271;22813;-71
2022/06/06 18:31:20;;;;;;;0.80;0.80;;;;;;;20.42;61.31;98623.80;219438;1271;23139;-71
2022/06/06 18:36:32;;;;;;;1.40;1.20;;;;;;;20.35;61.61;98624.66;219641;1274;25391;-69
2022/06/06 18:41:40;;;;;;;1.80;1.70;;;;;;;20.22;62.11;98626.98;219486;1271;22564;-70
2022/06/06 18:46:45;;;;;;;3.30;2.70;;;;;;;20.09;62.56;98629.95;219559;1271;22521;-70
2022/06/06 18:52:20;;;;;;;1.80;1.70;;;;;;;19.95;62.89;98628.17;219658;1271;22583;-69
2022/06/06 18:57:23;;;;;;;2.00;1.10;;;;;;;19.75;63.47;98628.63;219878;1272;26067;-70
2022/06/06 19:02:50;;;;;;;1.20;1.10;;;;;;;19.51;63.93;98631.40;219360;1271;24480;-69
2022/06/06 19:08:28;;;;;;;1.10;1.00;;;;;;;19.30;64.58;98633.84;220227;1271;25401;-69
2022/06/06 19:13:33;;;;;;;1.80;1.30;;;;;;;19.15;64.93;98640.30;220598;1271;22538;-70
2022/06/06 19:18:46;;;;;;;16.00;14.30;;;;;;;19.01;65.26;98639.15;219639;1271;25424;-71
2022/06/06 19:23:55;;;;;;;2.10;1.90;;;;;;;18.87;65.67;98642.41;219271;1271;22574;-69
2022/06/06 19:29:27;;;;;;;;;;;;;;;18.72;66.12;98643.62;219437;1271;24302;-69
2022/06/06 19:34:40;;;;;;;1.50;1.20;;;;;;;18.57;66.53;98645.95;220392;1271;24363;-70
2022/06/06 19:39:57;;;;;;;2.90;2.30;;;;;;;18.45;66.98;98643.98;221177;1271;24210;-69
2022/06/06 19:45:25;;;;;;;1.80;1.60;;;;;;;18.34;67.48;98641.81;219969;1274;24306;-70
2022/06/06 19:50:53;;;;;;;1.70;1.60;;;;;;;18.22;67.97;98640.69;220615;1271;22546;-70
2022/06/06 19:56:19;;;;;;;1.80;1.60;;;;;;;18.08;68.53;98637.17;219330;1271;22531;-69
2022/06/06 20:01:29;;;;;;;1.90;1.40;;;;;;;17.95;69.02;98637.02;219217;1271;22529;-69
2022/06/06 20:06:49;;;;;;;3.10;1.50;;;;;;;17.86;69.31;98634.32;219332;1271;24329;-70
2022/06/06 20:12:05;;;;;;;3.20;1.70;;;;;;;17.78;69.32;98640.16;219432;1271;22537;-69
2022/06/06 20:17:19;;;;;;;2.60;1.50;;;;;;;17.69;69.50;98640.98;219282;1271;25366;-69
2022/06/06 20:22:28;;;;;;;20.00;15.20;;;;;;;17.61;69.70;98638.41;219822;1271;25248;-70
2022/06/06 20:28:19;;;;;;;4.40;3.50;;;;;;;17.51;69.90;98634.08;219840;1271;22605;-70
2022/06/06 20:33:37;;;;;;;;;;;;;;;;;;;;;
2022/06/06 20:38:59;;;;;;;1.80;1.70;;;;;;;17.34;70.68;98630.72;220073;1271;25417;-69
2022/06/06 20:44:24;;;;;;;1.50;1.40;;;;;;;17.23;71.08;98628.92;219700;1271;24440;-69
2022/06/06 20:49:51;;;;;;;1.70;1.50;;;;;;;17.14;71.52;98621.09;219713;1271;22555;-68
2022/06/06 20:55:23;;;;;;;1.60;1.50;;;;;;;17.03;71.91;98620.98;219267;1271;22590;-69
2022/06/06 21:00:48;;;;;;;2.40;1.80;;;;;;;16.97;72.39;98619.05;219512;1271;22772;-70
2022/06/06 21:05:58;;;;;;;3.60;1.70;;;;;;;16.89;72.84;98623.75;219623;1271;22546;-70
2022/06/06 21:11:00;;;;;;;1.90;1.80;;;;;;;16.83;72.98;98617.73;219342;1271;25381;-67
2022/06/06 21:16:06;;;;;;;2.20;2.00;;;;;;;16.80;73.36;98620.00;219364;1271;22550;-69
2022/06/06 21:21:14;;;;;;;18.40;14.60;;;;;;;16.75;73.46;98618.45;219973;1271;25421;-69
2022/06/06 21:26:24;;;;;;;3.40;3.10;;;;;;;16.70;73.49;98613.48;220013;1271;22707;-69
2022/06/06 21:31:31;;;;;;;2.40;2.20;;;;;;;16.63;73.72;98613.78;219569;1271;25248;-69
2022/06/06 21:36:47;;;;;;;4.10;2.80;;;;;;;16.53;74.06;98617.30;219540;1273;24280;-70
2022/06/06 21:41:59;;;;;;;3.50;2.70;;;;;;;16.41;74.26;98612.45;219208;1271;26399;-69
2022/06/06 21:47:14;;;;;;;5.30;2.80;;;;;;;16.33;74.73;98614.42;219333;1271;22693;-69
2022/06/06 21:52:29;;;;;;;3.60;2.60;;;;;;;16.30;75.14;98618.54;219317;1271;22779;-69
2022/06/06 21:57:55;;;;;;;3.20;2.80;;;;;;;16.29;75.37;98618.73;219779;1271;22603;-71
2022/06/06 22:03:12;;;;;;;3.30;2.50;;;;;;;16.26;75.53;98615.23;219294;1271;24334;-70
2022/06/06 22:08:43;;;;;;;3.20;2.90;;;;;;;16.23;75.74;98617.67;219544;1271;22548;-69
2022/06/06 22:13:49;;;;;;;5.30;3.00;;;;;;;16.18;75.90;98619.11;219645;1271;24226;-71
2022/06/06 22:19:01;;;;;;;27.70;24.70;;;;;;;16.12;75.99;98615.55;220455;1271;22554;-70
2022/06/06 22:24:10;;;;;;;8.40;6.30;;;;;;;16.05;76.03;98611.22;219729;1271;24428;-70
2022/06/06 22:29:44;;;;;;;5.30;4.70;;;;;;;15.97;76.15;98612.67;219261;1271;22485;-70
2022/06/06 22:35:04;;;;;;;7.60;4.80;;;;;;;15.88;76.23;98614.73;219444;1271;22765;-69
2022/06/06 22:40:37;;;;;;;11.90;9.70;;;;;;;15.79;76.38;98610.47;219587;1271;25463;-68
2022/06/06 22:45:53;;;;;;;8.80;6.00;;;;;;;15.73;76.67;98608.00;219631;1271;22562;-70
2022/06/06 22:51:13;;;;;;;6.20;5.20;;;;;;;15.68;76.72;98609.40;219552;1271;24100;-69
2022/06/06 22:56:51;;;;;;;6.50;5.80;;;;;;;15.62;76.89;98608.46;219743;1271;22561;-70
2022/06/06 23:02:20;;;;;;;7.80;5.80;;;;;;;15.56;77.09;98604.39;219763;1271;22559;-68
2022/06/06 23:07:50;;;;;;;8.30;6.10;;;;;;;15.52;77.38;98608.39;219723;1273;22572;-69
2022/06/06 23:13:03;;;;;;;12.80;9.70;;;;;;;15.48;77.53;98601.58;219486;1271;26004;-70
2022/06/06 23:18:57;;;;;;;10.30;7.00;;;;;;;15.43;77.76;98600.52;219532;1271;25329;-69
2022/06/06 23:24:15;;;;;;;7.00;6.20;;;;;;;15.37;77.78;98600.39;219539;1271;22548;-70
2022/06/06 23:29:52;;;;;;;5.70;4.80;;;;;;;15.30;77.70;98597.17;219397;1271;23108;-69
2022/06/06 23:36:12;;;;;;;;;;;;;;;;;;;;;
2022/06/06 23:41:42;;;;;;;12.40;11.10;;;;;;;15.09;77.99;98591.95;219472;1271;22541;-69
2022/06/06 23:53:40;;;;;;;9.10;6.80;;;;;;;14.90;78.26;98592.39;219383;1271;25355;-69
2022/06/06 23:58:56;;;;;;;8.80;6.80;;;;;;;14.84;78.62;98592.21;219349;1271;24494;-69
